sensor_id;sensor_type;location;lat;lon;timestamp;P1;durP1;ratioP1;P2;durP2;ratioP2
39016;SDS011;24784;45.582;5.276;2024-01-16T00:00:51;68.47;;;34.58;;
39016;SDS011;24784;45.582;5.276;2024-01-16T00:03:17;71.57;;;35.10;;
39016;SDS011;24784;45.582;5.276;2024-01-16T00:05:42;65.45;;;34.42;;
39016;SDS011;24784;45.582;5.276;2024-01-16T00:08:08;68.18;;;33.08;;
39016;SDS011;24784;45.582;5.276;2024-01-16T00:10:34;60.92;;;33.38;;
39016;SDS011;24784;45.582;5.276;2024-01-16T00:12:59;65.20;;;32.78;;
39016;SDS011;24784;45.582;5.276;2024-01-16T00:15:25;67.32;;;33.88;;
39016;SDS011;24784;45.582;5.276;2024-01-16T00:17:51;65.38;;;31.40;;
39016;SDS011;24784;45.582;5.276;2024-01-16T00:20:16;66.40;;;33.15;;
39016;SDS011;24784;45.582;5.276;2024-01-16T00:22:42;69.55;;;33.75;;
39016;SDS011;24784;45.582;5.276;2024-01-16T00:25:07;71.28;;;33.97;;
39016;SDS011;24784;45.582;5.276;2024-01-16T00:27:33;67.82;;;33.78;;
39016;SDS011;24784;45.582;5.276;2024-01-16T00:29:59;70.03;;;34.65;;
39016;SDS011;24784;45.582;5.276;2024-01-16T00:32:24;73.07;;;34.90;;
39016;SDS011;24784;45.582;5.276;2024-01-16T00:34:50;72.18;;;34.78;;
39016;SDS011;24784;45.582;5.276;2024-01-16T00:37:16;78.65;;;37.45;;
39016;SDS011;24784;45.582;5.276;2024-01-16T00:39:42;65.93;;;33.13;;
39016;SDS011;24784;45.582;5.276;2024-01-16T00:42:08;78.57;;;35.80;;
39016;SDS011;24784;45.582;5.276;2024-01-16T00:44:33;71.32;;;33.17;;
39016;SDS011;24784;45.582;5.276;2024-01-16T00:47:00;71.57;;;34.03;;
39016;SDS011;24784;45.582;5.276;2024-01-16T00:49:26;69.50;;;32.83;;
39016;SDS011;24784;45.582;5.276;2024-01-16T00:51:53;72.53;;;35.22;;
39016;SDS011;24784;45.582;5.276;2024-01-16T00:54:18;69.60;;;32.97;;
39016;SDS011;24784;45.582;5.276;2024-01-16T00:56:44;74.90;;;33.80;;
39016;SDS011;24784;45.582;5.276;2024-01-16T00:59:10;73.65;;;32.30;;
39016;SDS011;24784;45.582;5.276;2024-01-16T01:01:38;72.82;;;32.28;;
39016;SDS011;24784;45.582;5.276;2024-01-16T01:04:04;69.70;;;32.75;;
39016;SDS011;24784;45.582;5.276;2024-01-16T01:06:30;69.85;;;32.80;;
39016;SDS011;24784;45.582;5.276;2024-01-16T01:08:55;73.88;;;34.78;;
39016;SDS011;24784;45.582;5.276;2024-01-16T01:11:21;76.28;;;35.08;;
39016;SDS011;24784;45.582;5.276;2024-01-16T01:13:47;74.55;;;33.38;;
39016;SDS011;24784;45.582;5.276;2024-01-16T01:16:12;66.90;;;32.25;;
39016;SDS011;24784;45.582;5.276;2024-01-16T01:18:38;74.18;;;34.00;;
39016;SDS011;24784;45.582;5.276;2024-01-16T01:21:03;79.40;;;34.70;;
39016;SDS011;24784;45.582;5.276;2024-01-16T01:23:29;69.22;;;33.10;;
39016;SDS011;24784;45.582;5.276;2024-01-16T01:25:55;68.78;;;33.53;;
39016;SDS011;24784;45.582;5.276;2024-01-16T01:28:20;70.70;;;33.88;;
39016;SDS011;24784;45.582;5.276;2024-01-16T01:30:46;72.72;;;34.20;;
39016;SDS011;24784;45.582;5.276;2024-01-16T01:33:11;61.05;;;32.17;;
39016;SDS011;24784;45.582;5.276;2024-01-16T01:35:37;69.25;;;33.67;;
39016;SDS011;24784;45.582;5.276;2024-01-16T01:38:03;70.50;;;35.03;;
39016;SDS011;24784;45.582;5.276;2024-01-16T01:40:29;69.68;;;33.13;;
39016;SDS011;24784;45.582;5.276;2024-01-16T01:42:54;65.20;;;33.67;;
39016;SDS011;24784;45.582;5.276;2024-01-16T01:45:20;66.63;;;33.58;;
39016;SDS011;24784;45.582;5.276;2024-01-16T01:47:46;68.82;;;34.08;;
39016;SDS011;24784;45.582;5.276;2024-01-16T01:50:13;72.68;;;35.60;;
39016;SDS011;24784;45.582;5.276;2024-01-16T01:52:39;73.75;;;33.55;;
39016;SDS011;24784;45.582;5.276;2024-01-16T01:55:06;71.80;;;35.47;;
39016;SDS011;24784;45.582;5.276;2024-01-16T01:57:35;72.05;;;34.33;;
39016;SDS011;24784;45.582;5.276;2024-01-16T02:00:01;71.80;;;36.22;;
39016;SDS011;24784;45.582;5.276;2024-01-16T02:02:29;70.10;;;35.17;;
39016;SDS011;24784;45.582;5.276;2024-01-16T02:04:56;67.18;;;34.60;;
39016;SDS011;24784;45.582;5.276;2024-01-16T02:07:21;66.32;;;33.92;;
39016;SDS011;24784;45.582;5.276;2024-01-16T02:09:47;69.18;;;34.78;;
39016;SDS011;24784;45.582;5.276;2024-01-16T02:12:14;70.32;;;33.20;;
39016;SDS011;24784;45.582;5.276;2024-01-16T02:14:39;67.75;;;34.22;;
39016;SDS011;24784;45.582;5.276;2024-01-16T02:17:05;67.82;;;33.70;;
39016;SDS011;24784;45.582;5.276;2024-01-16T02:19:31;63.13;;;32.80;;
39016;SDS011;24784;45.582;5.276;2024-01-16T02:21:59;67.47;;;34.70;;
39016;SDS011;24784;45.582;5.276;2024-01-16T02:24:26;67.57;;;32.60;;
39016;SDS011;24784;45.582;5.276;2024-01-16T02:26:51;67.45;;;33.95;;
39016;SDS011;24784;45.582;5.276;2024-01-16T02:29:18;69.57;;;35.50;;
39016;SDS011;24784;45.582;5.276;2024-01-16T02:31:44;68.80;;;34.85;;
39016;SDS011;24784;45.582;5.276;2024-01-16T02:34:10;69.82;;;34.75;;
39016;SDS011;24784;45.582;5.276;2024-01-16T02:36:36;74.53;;;34.67;;
39016;SDS011;24784;45.582;5.276;2024-01-16T02:39:01;73.03;;;35.92;;
39016;SDS011;24784;45.582;5.276;2024-01-16T02:41:27;68.10;;;34.08;;
39016;SDS011;24784;45.582;5.276;2024-01-16T02:43:53;65.45;;;33.35;;
39016;SDS011;24784;45.582;5.276;2024-01-16T02:46:19;63.15;;;33.88;;
39016;SDS011;24784;45.582;5.276;2024-01-16T02:48:44;68.75;;;34.08;;
39016;SDS011;24784;45.582;5.276;2024-01-16T02:51:11;63.35;;;32.90;;
39016;SDS011;24784;45.582;5.276;2024-01-16T02:53:37;65.60;;;33.38;;
39016;SDS011;24784;45.582;5.276;2024-01-16T02:56:03;62.20;;;32.38;;
39016;SDS011;24784;45.582;5.276;2024-01-16T02:58:29;67.20;;;32.53;;
39016;SDS011;24784;45.582;5.276;2024-01-16T03:00:58;70.85;;;34.42;;
39016;SDS011;24784;45.582;5.276;2024-01-16T03:03:24;65.22;;;32.92;;
39016;SDS011;24784;45.582;5.276;2024-01-16T03:05:50;65.25;;;31.70;;
39016;SDS011;24784;45.582;5.276;2024-01-16T03:08:15;67.75;;;33.95;;
39016;SDS011;24784;45.582;5.276;2024-01-16T03:10:41;66.97;;;33.67;;
39016;SDS011;24784;45.582;5.276;2024-01-16T03:13:07;66.25;;;33.42;;
39016;SDS011;24784;45.582;5.276;2024-01-16T03:15:33;67.68;;;33.92;;
39016;SDS011;24784;45.582;5.276;2024-01-16T03:17:58;71.80;;;36.05;;
39016;SDS011;24784;45.582;5.276;2024-01-16T03:20:26;79.18;;;36.78;;
39016;SDS011;24784;45.582;5.276;2024-01-16T03:22:52;67.53;;;35.38;;
39016;SDS011;24784;45.582;5.276;2024-01-16T03:25:18;73.30;;;35.88;;
39016;SDS011;24784;45.582;5.276;2024-01-16T03:27:44;69.57;;;36.45;;
39016;SDS011;24784;45.582;5.276;2024-01-16T03:30:10;71.05;;;35.35;;
39016;SDS011;24784;45.582;5.276;2024-01-16T03:32:36;69.03;;;35.60;;
39016;SDS011;24784;45.582;5.276;2024-01-16T03:35:02;72.45;;;37.17;;
39016;SDS011;24784;45.582;5.276;2024-01-16T03:37:29;78.05;;;36.75;;
39016;SDS011;24784;45.582;5.276;2024-01-16T03:39:54;78.50;;;36.58;;
39016;SDS011;24784;45.582;5.276;2024-01-16T03:42:20;74.60;;;37.47;;
39016;SDS011;24784;45.582;5.276;2024-01-16T03:44:46;79.47;;;37.65;;
39016;SDS011;24784;45.582;5.276;2024-01-16T03:47:12;83.25;;;40.25;;
39016;SDS011;24784;45.582;5.276;2024-01-16T03:49:37;88.07;;;42.38;;
39016;SDS011;24784;45.582;5.276;2024-01-16T03:52:03;72.30;;;36.22;;
39016;SDS011;24784;45.582;5.276;2024-01-16T03:54:29;71.38;;;34.33;;
39016;SDS011;24784;45.582;5.276;2024-01-16T03:56:55;67.63;;;34.63;;
39016;SDS011;24784;45.582;5.276;2024-01-16T03:59:21;81.32;;;38.47;;
39016;SDS011;24784;45.582;5.276;2024-01-16T04:01:46;74.70;;;35.90;;
39016;SDS011;24784;45.582;5.276;2024-01-16T04:04:14;83.68;;;38.22;;
39016;SDS011;24784;45.582;5.276;2024-01-16T04:06:40;80.30;;;40.22;;
39016;SDS011;24784;45.582;5.276;2024-01-16T04:09:07;77.50;;;39.17;;
39016;SDS011;24784;45.582;5.276;2024-01-16T04:11:34;79.15;;;39.33;;
39016;SDS011;24784;45.582;5.276;2024-01-16T04:14:00;75.30;;;37.78;;
39016;SDS011;24784;45.582;5.276;2024-01-16T04:16:26;77.63;;;37.40;;
39016;SDS011;24784;45.582;5.276;2024-01-16T04:18:52;91.30;;;42.17;;
39016;SDS011;24784;45.582;5.276;2024-01-16T04:21:18;87.68;;;39.72;;
39016;SDS011;24784;45.582;5.276;2024-01-16T04:23:43;81.32;;;38.53;;
39016;SDS011;24784;45.582;5.276;2024-01-16T04:26:09;85.20;;;39.05;;
39016;SDS011;24784;45.582;5.276;2024-01-16T04:28:35;84.68;;;40.70;;
39016;SDS011;24784;45.582;5.276;2024-01-16T04:31:04;84.93;;;37.58;;
39016;SDS011;24784;45.582;5.276;2024-01-16T04:33:30;83.97;;;39.05;;
39016;SDS011;24784;45.582;5.276;2024-01-16T04:35:56;82.22;;;40.78;;
39016;SDS011;24784;45.582;5.276;2024-01-16T04:38:22;87.22;;;38.90;;
39016;SDS011;24784;45.582;5.276;2024-01-16T04:40:48;76.95;;;37.40;;
39016;SDS011;24784;45.582;5.276;2024-01-16T04:43:14;78.85;;;38.97;;
39016;SDS011;24784;45.582;5.276;2024-01-16T04:45:40;83.03;;;38.97;;
39016;SDS011;24784;45.582;5.276;2024-01-16T04:48:05;88.47;;;40.58;;
39016;SDS011;24784;45.582;5.276;2024-01-16T04:50:33;89.10;;;39.75;;
39016;SDS011;24784;45.582;5.276;2024-01-16T04:52:59;78.32;;;39.50;;
39016;SDS011;24784;45.582;5.276;2024-01-16T04:55:26;89.95;;;39.83;;
39016;SDS011;24784;45.582;5.276;2024-01-16T04:57:52;82.10;;;37.38;;
39016;SDS011;24784;45.582;5.276;2024-01-16T05:00:18;84.63;;;39.45;;
39016;SDS011;24784;45.582;5.276;2024-01-16T05:02:43;86.78;;;40.38;;
39016;SDS011;24784;45.582;5.276;2024-01-16T05:05:09;78.90;;;37.35;;
39016;SDS011;24784;45.582;5.276;2024-01-16T05:07:35;86.60;;;40.88;;
39016;SDS011;24784;45.582;5.276;2024-01-16T05:10:00;85.57;;;39.85;;
39016;SDS011;24784;45.582;5.276;2024-01-16T05:12:26;92.82;;;41.35;;
39016;SDS011;24784;45.582;5.276;2024-01-16T05:14:52;81.75;;;37.00;;
39016;SDS011;24784;45.582;5.276;2024-01-16T05:17:18;84.32;;;39.33;;
39016;SDS011;24784;45.582;5.276;2024-01-16T05:19:43;84.65;;;38.10;;
39016;SDS011;24784;45.582;5.276;2024-01-16T05:22:09;87.07;;;39.70;;
39016;SDS011;24784;45.582;5.276;2024-01-16T05:24:35;92.10;;;40.83;;
39016;SDS011;24784;45.582;5.276;2024-01-16T05:27:01;89.70;;;41.47;;
39016;SDS011;24784;45.582;5.276;2024-01-16T05:29:27;91.95;;;42.22;;
39016;SDS011;24784;45.582;5.276;2024-01-16T05:31:53;90.68;;;40.38;;
39016;SDS011;24784;45.582;5.276;2024-01-16T05:34:19;96.93;;;42.40;;
39016;SDS011;24784;45.582;5.276;2024-01-16T05:36:44;94.55;;;40.47;;
39016;SDS011;24784;45.582;5.276;2024-01-16T05:39:10;95.05;;;42.10;;
39016;SDS011;24784;45.582;5.276;2024-01-16T05:41:36;91.40;;;41.20;;
39016;SDS011;24784;45.582;5.276;2024-01-16T05:44:02;96.45;;;42.40;;
39016;SDS011;24784;45.582;5.276;2024-01-16T05:46:29;88.72;;;40.53;;
39016;SDS011;24784;45.582;5.276;2024-01-16T05:48:57;84.72;;;39.50;;
39016;SDS011;24784;45.582;5.276;2024-01-16T05:51:23;84.35;;;39.85;;
39016;SDS011;24784;45.582;5.276;2024-01-16T05:53:50;91.50;;;39.55;;
39016;SDS011;24784;45.582;5.276;2024-01-16T05:56:16;95.90;;;41.83;;
39016;SDS011;24784;45.582;5.276;2024-01-16T05:58:41;89.88;;;39.17;;
39016;SDS011;24784;45.582;5.276;2024-01-16T06:01:07;87.80;;;40.53;;
39016;SDS011;24784;45.582;5.276;2024-01-16T06:03:33;90.50;;;38.28;;
39016;SDS011;24784;45.582;5.276;2024-01-16T06:05:58;96.40;;;40.85;;
39016;SDS011;24784;45.582;5.276;2024-01-16T06:08:24;95.32;;;40.33;;
39016;SDS011;24784;45.582;5.276;2024-01-16T06:10:50;94.63;;;40.42;;
39016;SDS011;24784;45.582;5.276;2024-01-16T06:13:18;97.65;;;38.67;;
39016;SDS011;24784;45.582;5.276;2024-01-16T06:15:44;90.35;;;38.58;;
39016;SDS011;24784;45.582;5.276;2024-01-16T06:18:10;86.47;;;37.53;;
39016;SDS011;24784;45.582;5.276;2024-01-16T06:20:35;89.97;;;36.78;;
39016;SDS011;24784;45.582;5.276;2024-01-16T06:23:01;84.47;;;35.58;;
39016;SDS011;24784;45.582;5.276;2024-01-16T06:25:26;84.57;;;36.15;;
39016;SDS011;24784;45.582;5.276;2024-01-16T06:27:52;84.65;;;36.13;;
39016;SDS011;24784;45.582;5.276;2024-01-16T06:30:18;94.18;;;37.45;;
39016;SDS011;24784;45.582;5.276;2024-01-16T06:32:43;90.05;;;37.05;;
39016;SDS011;24784;45.582;5.276;2024-01-16T06:35:09;89.15;;;37.10;;
39016;SDS011;24784;45.582;5.276;2024-01-16T06:37:37;95.05;;;38.05;;
39016;SDS011;24784;45.582;5.276;2024-01-16T06:40:03;90.57;;;37.60;;
39016;SDS011;24784;45.582;5.276;2024-01-16T06:42:29;92.40;;;39.15;;
39016;SDS011;24784;45.582;5.276;2024-01-16T06:44:54;97.85;;;37.33;;
39016;SDS011;24784;45.582;5.276;2024-01-16T06:47:20;97.25;;;37.85;;
39016;SDS011;24784;45.582;5.276;2024-01-16T06:49:46;87.28;;;36.15;;
39016;SDS011;24784;45.582;5.276;2024-01-16T06:52:12;92.90;;;36.95;;
39016;SDS011;24784;45.582;5.276;2024-01-16T06:54:37;85.75;;;35.67;;
39016;SDS011;24784;45.582;5.276;2024-01-16T06:57:03;92.65;;;37.55;;
39016;SDS011;24784;45.582;5.276;2024-01-16T06:59:29;93.40;;;36.70;;
39016;SDS011;24784;45.582;5.276;2024-01-16T07:01:55;93.03;;;36.40;;
39016;SDS011;24784;45.582;5.276;2024-01-16T07:04:20;76.93;;;33.22;;
39016;SDS011;24784;45.582;5.276;2024-01-16T07:06:46;96.47;;;37.03;;
39016;SDS011;24784;45.582;5.276;2024-01-16T07:09:12;97.55;;;36.83;;
39016;SDS011;24784;45.582;5.276;2024-01-16T07:11:38;91.22;;;35.55;;
39016;SDS011;24784;45.582;5.276;2024-01-16T07:14:07;99.15;;;36.05;;
39016;SDS011;24784;45.582;5.276;2024-01-16T07:16:34;111.15;;;37.90;;
39016;SDS011;24784;45.582;5.276;2024-01-16T07:19:00;97.07;;;38.28;;
39016;SDS011;24784;45.582;5.276;2024-01-16T07:21:27;87.43;;;35.58;;
39016;SDS011;24784;45.582;5.276;2024-01-16T07:23:53;103.10;;;35.65;;
39016;SDS011;24784;45.582;5.276;2024-01-16T07:26:19;94.75;;;33.95;;
39016;SDS011;24784;45.582;5.276;2024-01-16T07:28:45;89.63;;;34.28;;
39016;SDS011;24784;45.582;5.276;2024-01-16T07:31:13;94.75;;;35.72;;
39016;SDS011;24784;45.582;5.276;2024-01-16T07:33:39;96.75;;;33.80;;
39016;SDS011;24784;45.582;5.276;2024-01-16T07:36:05;82.75;;;32.60;;
39016;SDS011;24784;45.582;5.276;2024-01-16T07:38:31;86.78;;;31.55;;
39016;SDS011;24784;45.582;5.276;2024-01-16T07:40:57;94.70;;;32.05;;
39016;SDS011;24784;45.582;5.276;2024-01-16T07:43:23;77.82;;;33.20;;
39016;SDS011;24784;45.582;5.276;2024-01-16T07:45:49;88.80;;;32.00;;
39016;SDS011;24784;45.582;5.276;2024-01-16T07:48:15;98.95;;;32.55;;
39016;SDS011;24784;45.582;5.276;2024-01-16T07:50:40;96.50;;;33.45;;
39016;SDS011;24784;45.582;5.276;2024-01-16T07:53:06;96.07;;;36.55;;
39016;SDS011;24784;45.582;5.276;2024-01-16T07:55:32;102.50;;;33.78;;
39016;SDS011;24784;45.582;5.276;2024-01-16T07:57:57;88.40;;;32.33;;
39016;SDS011;24784;45.582;5.276;2024-01-16T08:00:23;95.70;;;34.03;;
39016;SDS011;24784;45.582;5.276;2024-01-16T08:02:48;96.88;;;35.72;;
39016;SDS011;24784;45.582;5.276;2024-01-16T08:05:14;91.15;;;35.33;;
39016;SDS011;24784;45.582;5.276;2024-01-16T08:07:43;112.47;;;36.60;;
39016;SDS011;24784;45.582;5.276;2024-01-16T08:10:10;105.70;;;35.55;;
39016;SDS011;24784;45.582;5.276;2024-01-16T08:12:36;101.20;;;36.03;;
39016;SDS011;24784;45.582;5.276;2024-01-16T08:15:02;111.93;;;42.45;;
39016;SDS011;24784;45.582;5.276;2024-01-16T08:17:29;111.32;;;39.15;;
39016;SDS011;24784;45.582;5.276;2024-01-16T08:19:55;105.72;;;39.63;;
39016;SDS011;24784;45.582;5.276;2024-01-16T08:22:20;110.38;;;36.80;;
39016;SDS011;24784;45.582;5.276;2024-01-16T08:24:46;106.18;;;37.72;;
39016;SDS011;24784;45.582;5.276;2024-01-16T08:27:12;109.20;;;36.60;;
39016;SDS011;24784;45.582;5.276;2024-01-16T08:29:38;112.03;;;36.95;;
39016;SDS011;24784;45.582;5.276;2024-01-16T08:32:03;112.18;;;36.03;;
39016;SDS011;24784;45.582;5.276;2024-01-16T08:34:29;110.90;;;36.10;;
39016;SDS011;24784;45.582;5.276;2024-01-16T08:36:55;112.15;;;38.28;;
39016;SDS011;24784;45.582;5.276;2024-01-16T08:39:22;101.53;;;36.63;;
39016;SDS011;24784;45.582;5.276;2024-01-16T08:41:49;104.25;;;37.65;;
39016;SDS011;24784;45.582;5.276;2024-01-16T08:44:15;117.72;;;35.72;;
39016;SDS011;24784;45.582;5.276;2024-01-16T08:46:40;111.85;;;37.38;;
39016;SDS011;24784;45.582;5.276;2024-01-16T08:49:06;103.30;;;36.47;;
39016;SDS011;24784;45.582;5.276;2024-01-16T08:51:32;132.95;;;39.97;;
39016;SDS011;24784;45.582;5.276;2024-01-16T08:53:57;109.72;;;35.53;;
39016;SDS011;24784;45.582;5.276;2024-01-16T08:56:23;116.95;;;36.75;;
39016;SDS011;24784;45.582;5.276;2024-01-16T08:58:49;127.10;;;39.42;;
39016;SDS011;24784;45.582;5.276;2024-01-16T09:01:14;109.85;;;38.17;;
39016;SDS011;24784;45.582;5.276;2024-01-16T09:03:40;118.30;;;40.25;;
39016;SDS011;24784;45.582;5.276;2024-01-16T09:06:08;132.48;;;39.85;;
39016;SDS011;24784;45.582;5.276;2024-01-16T09:08:35;122.10;;;40.90;;
39016;SDS011;24784;45.582;5.276;2024-01-16T09:11:01;122.30;;;42.05;;
39016;SDS011;24784;45.582;5.276;2024-01-16T09:13:26;135.32;;;43.03;;
39016;SDS011;24784;45.582;5.276;2024-01-16T09:15:52;137.98;;;42.92;;
39016;SDS011;24784;45.582;5.276;2024-01-16T09:18:17;130.82;;;44.08;;
39016;SDS011;24784;45.582;5.276;2024-01-16T09:20:43;142.13;;;43.80;;
39016;SDS011;24784;45.582;5.276;2024-01-16T09:23:09;136.05;;;44.97;;
39016;SDS011;24784;45.582;5.276;2024-01-16T09:25:35;150.52;;;46.60;;
39016;SDS011;24784;45.582;5.276;2024-01-16T09:28:01;131.02;;;44.22;;
39016;SDS011;24784;45.582;5.276;2024-01-16T09:30:27;155.23;;;48.60;;
39016;SDS011;24784;45.582;5.276;2024-01-16T09:32:52;145.80;;;45.70;;
39016;SDS011;24784;45.582;5.276;2024-01-16T09:35:18;153.30;;;47.65;;
39016;SDS011;24784;45.582;5.276;2024-01-16T09:37:44;154.73;;;47.17;;
39016;SDS011;24784;45.582;5.276;2024-01-16T09:40:10;140.00;;;44.05;;
39016;SDS011;24784;45.582;5.276;2024-01-16T09:42:36;156.48;;;47.53;;
39016;SDS011;24784;45.582;5.276;2024-01-16T09:45:02;145.18;;;45.20;;
39016;SDS011;24784;45.582;5.276;2024-01-16T09:47:29;157.57;;;47.20;;
39016;SDS011;24784;45.582;5.276;2024-01-16T09:49:57;145.77;;;46.20;;
39016;SDS011;24784;45.582;5.276;2024-01-16T09:52:24;186.50;;;48.55;;
39016;SDS011;24784;45.582;5.276;2024-01-16T09:54:50;168.27;;;54.70;;
39016;SDS011;24784;45.582;5.276;2024-01-16T09:57:17;182.30;;;50.10;;
39016;SDS011;24784;45.582;5.276;2024-01-16T09:59:48;149.60;;;47.72;;
39016;SDS011;24784;45.582;5.276;2024-01-16T10:02:14;143.43;;;45.80;;
39016;SDS011;24784;45.582;5.276;2024-01-16T10:04:41;146.23;;;46.47;;
39016;SDS011;24784;45.582;5.276;2024-01-16T10:07:07;153.70;;;48.28;;
39016;SDS011;24784;45.582;5.276;2024-01-16T10:09:34;137.40;;;47.42;;
39016;SDS011;24784;45.582;5.276;2024-01-16T10:12:00;155.15;;;51.42;;
39016;SDS011;24784;45.582;5.276;2024-01-16T10:14:27;188.07;;;53.47;;
39016;SDS011;24784;45.582;5.276;2024-01-16T10:19:46;159.38;;;51.10;;
39016;SDS011;24784;45.582;5.276;2024-01-16T10:22:14;169.93;;;50.92;;
39016;SDS011;24784;45.582;5.276;2024-01-16T10:27:32;147.35;;;47.75;;
39016;SDS011;24784;45.582;5.276;2024-01-16T10:29:59;173.27;;;51.85;;
39016;SDS011;24784;45.582;5.276;2024-01-16T10:32:28;177.63;;;49.92;;
39016;SDS011;24784;45.582;5.276;2024-01-16T10:35:07;150.60;;;46.42;;
39016;SDS011;24784;45.582;5.276;2024-01-16T10:40:29;148.45;;;47.45;;
39016;SDS011;24784;45.582;5.276;2024-01-16T10:42:59;159.30;;;48.90;;
39016;SDS011;24784;45.582;5.276;2024-01-16T10:45:26;151.45;;;47.75;;
39016;SDS011;24784;45.582;5.276;2024-01-16T10:50:31;160.18;;;48.85;;
39016;SDS011;24784;45.582;5.276;2024-01-16T10:53:05;166.88;;;51.40;;
39016;SDS011;24784;45.582;5.276;2024-01-16T10:55:33;162.38;;;51.28;;
39016;SDS011;24784;45.582;5.276;2024-01-16T10:58:16;157.35;;;48.63;;
39016;SDS011;24784;45.582;5.276;2024-01-16T11:00:49;158.43;;;49.40;;
39016;SDS011;24784;45.582;5.276;2024-01-16T11:03:24;176.43;;;52.58;;
39016;SDS011;24784;45.582;5.276;2024-01-16T11:05:55;180.82;;;52.50;;
39016;SDS011;24784;45.582;5.276;2024-01-16T11:08:23;171.93;;;52.00;;
39016;SDS011;24784;45.582;5.276;2024-01-16T11:10:54;162.75;;;51.65;;
39016;SDS011;24784;45.582;5.276;2024-01-16T11:13:20;162.23;;;49.00;;
39016;SDS011;24784;45.582;5.276;2024-01-16T11:15:47;170.23;;;51.97;;
39016;SDS011;24784;45.582;5.276;2024-01-16T11:18:14;166.63;;;50.92;;
39016;SDS011;24784;45.582;5.276;2024-01-16T11:20:41;156.55;;;49.67;;
39016;SDS011;24784;45.582;5.276;2024-01-16T11:23:08;153.77;;;51.05;;
39016;SDS011;24784;45.582;5.276;2024-01-16T11:25:36;166.57;;;50.92;;
39016;SDS011;24784;45.582;5.276;2024-01-16T11:28:13;164.90;;;50.33;;
39016;SDS011;24784;45.582;5.276;2024-01-16T11:30:40;152.45;;;50.03;;
39016;SDS011;24784;45.582;5.276;2024-01-16T11:33:54;142.40;;;49.88;;
39016;SDS011;24784;45.582;5.276;2024-01-16T11:35:57;153.60;;;49.03;;
39016;SDS011;24784;45.582;5.276;2024-01-16T11:38:24;156.45;;;50.95;;
39016;SDS011;24784;45.582;5.276;2024-01-16T11:40:55;162.77;;;50.88;;
39016;SDS011;24784;45.582;5.276;2024-01-16T11:46:00;149.63;;;49.75;;
39016;SDS011;24784;45.582;5.276;2024-01-16T11:48:30;161.30;;;50.97;;
39016;SDS011;24784;45.582;5.276;2024-01-16T11:50:55;163.45;;;51.60;;
39016;SDS011;24784;45.582;5.276;2024-01-16T12:01:05;158.70;;;51.47;;
39016;SDS011;24784;45.582;5.276;2024-01-16T12:03:31;165.55;;;50.80;;
39016;SDS011;24784;45.582;5.276;2024-01-16T12:05:58;154.85;;;51.33;;
39016;SDS011;24784;45.582;5.276;2024-01-16T12:08:24;157.82;;;51.35;;
39016;SDS011;24784;45.582;5.276;2024-01-16T12:10:50;143.90;;;50.38;;
39016;SDS011;24784;45.582;5.276;2024-01-16T12:13:16;148.77;;;52.58;;
39016;SDS011;24784;45.582;5.276;2024-01-16T12:15:43;142.65;;;50.72;;
39016;SDS011;24784;45.582;5.276;2024-01-16T12:18:09;145.68;;;49.30;;
39016;SDS011;24784;45.582;5.276;2024-01-16T12:20:38;151.13;;;50.05;;
39016;SDS011;24784;45.582;5.276;2024-01-16T12:23:04;140.80;;;49.22;;
39016;SDS011;24784;45.582;5.276;2024-01-16T12:25:34;148.23;;;49.60;;
39016;SDS011;24784;45.582;5.276;2024-01-16T12:28:01;142.57;;;48.17;;
39016;SDS011;24784;45.582;5.276;2024-01-16T12:30:31;143.60;;;50.63;;
39016;SDS011;24784;45.582;5.276;2024-01-16T12:33:11;133.38;;;45.92;;
39016;SDS011;24784;45.582;5.276;2024-01-16T12:35:42;144.18;;;48.65;;
39016;SDS011;24784;45.582;5.276;2024-01-16T12:38:12;141.70;;;49.22;;
39016;SDS011;24784;45.582;5.276;2024-01-16T12:40:45;136.88;;;47.80;;
39016;SDS011;24784;45.582;5.276;2024-01-16T12:43:16;140.82;;;49.58;;
39016;SDS011;24784;45.582;5.276;2024-01-16T12:45:43;141.85;;;48.92;;
39016;SDS011;24784;45.582;5.276;2024-01-16T12:48:10;136.48;;;47.28;;
39016;SDS011;24784;45.582;5.276;2024-01-16T12:50:36;140.63;;;48.25;;
39016;SDS011;24784;45.582;5.276;2024-01-16T12:53:05;140.70;;;47.03;;
39016;SDS011;24784;45.582;5.276;2024-01-16T12:55:36;139.73;;;47.60;;
39016;SDS011;24784;45.582;5.276;2024-01-16T13:00:48;133.27;;;46.13;;
39016;SDS011;24784;45.582;5.276;2024-01-16T13:03:24;136.18;;;47.78;;
39016;SDS011;24784;45.582;5.276;2024-01-16T13:06:03;133.93;;;47.75;;
39016;SDS011;24784;45.582;5.276;2024-01-16T13:08:29;138.95;;;48.83;;
39016;SDS011;24784;45.582;5.276;2024-01-16T13:11:02;127.35;;;48.05;;
39016;SDS011;24784;45.582;5.276;2024-01-16T13:13:29;146.60;;;49.63;;
39016;SDS011;24784;45.582;5.276;2024-01-16T13:15:55;133.65;;;47.78;;
39016;SDS011;24784;45.582;5.276;2024-01-16T13:18:27;130.95;;;47.47;;
39016;SDS011;24784;45.582;5.276;2024-01-16T13:20:54;125.78;;;47.17;;
39016;SDS011;24784;45.582;5.276;2024-01-16T13:23:21;129.32;;;47.33;;
39016;SDS011;24784;45.582;5.276;2024-01-16T13:25:50;142.98;;;47.40;;
39016;SDS011;24784;45.582;5.276;2024-01-16T13:28:17;120.63;;;44.85;;
39016;SDS011;24784;45.582;5.276;2024-01-16T13:30:45;135.07;;;47.00;;
39016;SDS011;24784;45.582;5.276;2024-01-16T13:33:11;138.55;;;48.22;;
39016;SDS011;24784;45.582;5.276;2024-01-16T13:35:39;142.23;;;47.67;;
39016;SDS011;24784;45.582;5.276;2024-01-16T13:38:06;134.63;;;46.25;;
39016;SDS011;24784;45.582;5.276;2024-01-16T13:40:33;121.93;;;44.80;;
39016;SDS011;24784;45.582;5.276;2024-01-16T13:43:00;133.05;;;45.33;;
39016;SDS011;24784;45.582;5.276;2024-01-16T13:45:27;119.22;;;44.08;;
39016;SDS011;24784;45.582;5.276;2024-01-16T13:47:53;126.68;;;46.63;;
39016;SDS011;24784;45.582;5.276;2024-01-16T13:50:20;132.07;;;46.05;;
39016;SDS011;24784;45.582;5.276;2024-01-16T13:52:46;123.80;;;47.60;;
39016;SDS011;24784;45.582;5.276;2024-01-16T13:55:12;141.43;;;45.63;;
39016;SDS011;24784;45.582;5.276;2024-01-16T13:57:37;125.40;;;45.60;;
39016;SDS011;24784;45.582;5.276;2024-01-16T14:00:05;118.07;;;44.70;;
39016;SDS011;24784;45.582;5.276;2024-01-16T14:02:32;158.18;;;57.13;;
39016;SDS011;24784;45.582;5.276;2024-01-16T14:05:03;170.90;;;59.25;;
39016;SDS011;24784;45.582;5.276;2024-01-16T14:07:30;140.65;;;54.92;;
39016;SDS011;24784;45.582;5.276;2024-01-16T14:09:56;131.95;;;50.88;;
39016;SDS011;24784;45.582;5.276;2024-01-16T14:12:23;136.70;;;46.60;;
39016;SDS011;24784;45.582;5.276;2024-01-16T14:14:49;118.03;;;42.95;;
39016;SDS011;24784;45.582;5.276;2024-01-16T14:17:16;131.65;;;47.08;;
39016;SDS011;24784;45.582;5.276;2024-01-16T14:19:42;120.53;;;44.15;;
39016;SDS011;24784;45.582;5.276;2024-01-16T14:22:08;132.90;;;47.20;;
39016;SDS011;24784;45.582;5.276;2024-01-16T14:24:35;116.00;;;43.55;;
39016;SDS011;24784;45.582;5.276;2024-01-16T14:27:02;124.13;;;44.65;;
39016;SDS011;24784;45.582;5.276;2024-01-16T14:29:29;115.65;;;42.55;;
39016;SDS011;24784;45.582;5.276;2024-01-16T14:31:55;113.25;;;46.58;;
39016;SDS011;24784;45.582;5.276;2024-01-16T14:34:21;153.98;;;60.75;;
39016;SDS011;24784;45.582;5.276;2024-01-16T14:36:48;121.90;;;46.53;;